sensor_id;sensor_type;location;lat;lon;timestamp;P1;durP1;ratioP1;P2;durP2;ratioP2
60243;SDS011;46106;51.468;5.814;2022-12-07T00:01:11;128.07;;;39.17;;
60243;SDS011;46106;51.468;5.814;2022-12-07T00:03:41;132.68;;;40.97;;
60243;SDS011;46106;51.468;5.814;2022-12-07T00:06:09;109.30;;;39.17;;
60243;SDS011;46106;51.468;5.814;2022-12-07T00:08:36;127.43;;;39.55;;
60243;SDS011;46106;51.468;5.814;2022-12-07T00:11:06;130.68;;;42.33;;
60243;SDS011;46106;51.468;5.814;2022-12-07T00:13:33;110.32;;;40.83;;
60243;SDS011;46106;51.468;5.814;2022-12-07T00:16:00;137.73;;;39.58;;
60243;SDS011;46106;51.468;5.814;2022-12-07T00:18:37;126.28;;;40.97;;
60243;SDS011;46106;51.468;5.814;2022-12-07T00:21:08;122.35;;;41.60;;
60243;SDS011;46106;51.468;5.814;2022-12-07T00:23:34;127.68;;;40.80;;
60243;SDS011;46106;51.468;5.814;2022-12-07T00:26:04;120.53;;;40.55;;
60243;SDS011;46106;51.468;5.814;2022-12-07T00:28:33;118.68;;;41.72;;
60243;SDS011;46106;51.468;5.814;2022-12-07T00:31:03;135.90;;;42.63;;
60243;SDS011;46106;51.468;5.814;2022-12-07T00:33:34;124.60;;;41.00;;
60243;SDS011;46106;51.468;5.814;2022-12-07T00:36:01;140.68;;;42.35;;
60243;SDS011;46106;51.468;5.814;2022-12-07T00:38:29;131.07;;;42.55;;
60243;SDS011;46106;51.468;5.814;2022-12-07T00:40:57;132.85;;;43.05;;
60243;SDS011;46106;51.468;5.814;2022-12-07T00:43:26;143.73;;;42.55;;
60243;SDS011;46106;51.468;5.814;2022-12-07T00:45:53;143.05;;;43.63;;
60243;SDS011;46106;51.468;5.814;2022-12-07T00:48:20;124.90;;;41.47;;
60243;SDS011;46106;51.468;5.814;2022-12-07T00:50:46;124.60;;;42.15;;
60243;SDS011;46106;51.468;5.814;2022-12-07T00:53:12;139.35;;;42.20;;
60243;SDS011;46106;51.468;5.814;2022-12-07T00:55:37;133.00;;;43.40;;
60243;SDS011;46106;51.468;5.814;2022-12-07T00:58:03;135.70;;;41.53;;
60243;SDS011;46106;51.468;5.814;2022-12-07T01:00:29;144.27;;;42.72;;
60243;SDS011;46106;51.468;5.814;2022-12-07T01:02:55;143.40;;;44.75;;
60243;SDS011;46106;51.468;5.814;2022-12-07T01:05:21;136.95;;;43.03;;
60243;SDS011;46106;51.468;5.814;2022-12-07T01:07:47;155.30;;;43.65;;
60243;SDS011;46106;51.468;5.814;2022-12-07T01:10:13;131.45;;;42.25;;
60243;SDS011;46106;51.468;5.814;2022-12-07T01:12:39;127.88;;;41.08;;
60243;SDS011;46106;51.468;5.814;2022-12-07T01:15:08;143.43;;;43.05;;
60243;SDS011;46106;51.468;5.814;2022-12-07T01:17:34;141.65;;;41.20;;
60243;SDS011;46106;51.468;5.814;2022-12-07T01:20:00;135.55;;;43.25;;
60243;SDS011;46106;51.468;5.814;2022-12-07T01:22:26;138.90;;;42.20;;
60243;SDS011;46106;51.468;5.814;2022-12-07T01:24:51;148.45;;;45.15;;
60243;SDS011;46106;51.468;5.814;2022-12-07T01:27:17;138.18;;;45.13;;
60243;SDS011;46106;51.468;5.814;2022-12-07T01:29:45;138.25;;;43.67;;
60243;SDS011;46106;51.468;5.814;2022-12-07T01:32:10;148.68;;;45.45;;
60243;SDS011;46106;51.468;5.814;2022-12-07T01:34:36;161.02;;;45.28;;
60243;SDS011;46106;51.468;5.814;2022-12-07T01:37:01;137.18;;;44.30;;
60243;SDS011;46106;51.468;5.814;2022-12-07T01:39:27;145.10;;;45.85;;
60243;SDS011;46106;51.468;5.814;2022-12-07T01:41:53;138.48;;;44.53;;
60243;SDS011;46106;51.468;5.814;2022-12-07T01:44:20;146.25;;;45.17;;
60243;SDS011;46106;51.468;5.814;2022-12-07T01:46:48;135.45;;;41.20;;
60243;SDS011;46106;51.468;5.814;2022-12-07T01:49:21;132.40;;;41.50;;
60243;SDS011;46106;51.468;5.814;2022-12-07T01:51:47;137.90;;;42.08;;
60243;SDS011;46106;51.468;5.814;2022-12-07T01:54:16;118.35;;;39.88;;
60243;SDS011;46106;51.468;5.814;2022-12-07T01:56:44;119.28;;;39.13;;
60243;SDS011;46106;51.468;5.814;2022-12-07T01:59:17;123.13;;;38.95;;
60243;SDS011;46106;51.468;5.814;2022-12-07T02:01:44;130.02;;;39.90;;
60243;SDS011;46106;51.468;5.814;2022-12-07T02:04:10;121.30;;;38.45;;
60243;SDS011;46106;51.468;5.814;2022-12-07T02:06:37;127.95;;;38.55;;
60243;SDS011;46106;51.468;5.814;2022-12-07T02:09:03;112.25;;;37.95;;
60243;SDS011;46106;51.468;5.814;2022-12-07T02:11:29;135.68;;;38.10;;
60243;SDS011;46106;51.468;5.814;2022-12-07T02:13:56;120.20;;;38.55;;
60243;SDS011;46106;51.468;5.814;2022-12-07T02:19:39;114.47;;;35.80;;
60243;SDS011;46106;51.468;5.814;2022-12-07T02:28:05;129.38;;;37.35;;
60243;SDS011;46106;51.468;5.814;2022-12-07T02:33:10;105.13;;;36.15;;
60243;SDS011;46106;51.468;5.814;2022-12-07T02:35:40;129.57;;;38.97;;
60243;SDS011;46106;51.468;5.814;2022-12-07T02:40:43;118.57;;;36.45;;
60243;SDS011;46106;51.468;5.814;2022-12-07T02:43:25;129.98;;;37.13;;
60243;SDS011;46106;51.468;5.814;2022-12-07T02:45:54;125.65;;;39.30;;
60243;SDS011;46106;51.468;5.814;2022-12-07T02:48:23;131.43;;;37.80;;
60243;SDS011;46106;51.468;5.814;2022-12-07T02:50:52;126.35;;;38.05;;
60243;SDS011;46106;51.468;5.814;2022-12-07T02:53:31;104.93;;;36.95;;
60243;SDS011;46106;51.468;5.814;2022-12-07T02:56:13;129.05;;;36.85;;
60243;SDS011;46106;51.468;5.814;2022-12-07T03:06:59;127.78;;;35.78;;
60243;SDS011;46106;51.468;5.814;2022-12-07T03:15:35;124.32;;;36.47;;
60243;SDS011;46106;51.468;5.814;2022-12-07T03:18:05;114.90;;;37.85;;
60243;SDS011;46106;51.468;5.814;2022-12-07T03:20:33;133.70;;;38.70;;
60243;SDS011;46106;51.468;5.814;2022-12-07T03:23:04;135.68;;;39.58;;
60243;SDS011;46106;51.468;5.814;2022-12-07T03:25:35;128.00;;;39.30;;
60243;SDS011;46106;51.468;5.814;2022-12-07T03:28:05;161.45;;;39.42;;
60243;SDS011;46106;51.468;5.814;2022-12-07T03:33:07;131.77;;;38.75;;
60243;SDS011;46106;51.468;5.814;2022-12-07T03:39:02;132.52;;;39.45;;
60243;SDS011;46106;51.468;5.814;2022-12-07T03:41:30;139.68;;;40.60;;
60243;SDS011;46106;51.468;5.814;2022-12-07T03:43:58;149.90;;;42.90;;
60243;SDS011;46106;51.468;5.814;2022-12-07T03:46:39;168.07;;;43.53;;
60243;SDS011;46106;51.468;5.814;2022-12-07T03:52:08;138.73;;;39.08;;
60243;SDS011;46106;51.468;5.814;2022-12-07T03:57:53;151.50;;;40.17;;
60243;SDS011;46106;51.468;5.814;2022-12-07T04:00:23;128.80;;;39.13;;
60243;SDS011;46106;51.468;5.814;2022-12-07T04:02:51;141.52;;;41.80;;
60243;SDS011;46106;51.468;5.814;2022-12-07T04:05:17;151.25;;;42.53;;
60243;SDS011;46106;51.468;5.814;2022-12-07T04:07:43;142.98;;;40.47;;
60243;SDS011;46106;51.468;5.814;2022-12-07T04:10:09;139.02;;;37.75;;
60243;SDS011;46106;51.468;5.814;2022-12-07T04:12:35;138.63;;;38.63;;
60243;SDS011;46106;51.468;5.814;2022-12-07T04:15:02;119.95;;;37.78;;
60243;SDS011;46106;51.468;5.814;2022-12-07T04:17:29;125.88;;;37.53;;
60243;SDS011;46106;51.468;5.814;2022-12-07T04:19:54;125.93;;;38.28;;
60243;SDS011;46106;51.468;5.814;2022-12-07T04:22:21;128.25;;;37.25;;
60243;SDS011;46106;51.468;5.814;2022-12-07T04:24:47;133.75;;;39.72;;
60243;SDS011;46106;51.468;5.814;2022-12-07T04:27:12;138.88;;;38.42;;
60243;SDS011;46106;51.468;5.814;2022-12-07T04:29:38;115.60;;;36.72;;
60243;SDS011;46106;51.468;5.814;2022-12-07T04:32:03;122.57;;;36.05;;
60243;SDS011;46106;51.468;5.814;2022-12-07T04:34:29;115.80;;;36.53;;
60243;SDS011;46106;51.468;5.814;2022-12-07T04:36:54;126.28;;;35.38;;
60243;SDS011;46106;51.468;5.814;2022-12-07T04:39:25;111.35;;;34.33;;
60243;SDS011;46106;51.468;5.814;2022-12-07T04:41:52;121.72;;;35.00;;
60243;SDS011;46106;51.468;5.814;2022-12-07T04:44:20;109.93;;;34.30;;
60243;SDS011;46106;51.468;5.814;2022-12-07T04:46:46;128.57;;;34.58;;
60243;SDS011;46106;51.468;5.814;2022-12-07T04:49:13;106.28;;;31.02;;
60243;SDS011;46106;51.468;5.814;2022-12-07T04:51:39;112.07;;;32.38;;
60243;SDS011;46106;51.468;5.814;2022-12-07T04:54:05;121.13;;;33.92;;
60243;SDS011;46106;51.468;5.814;2022-12-07T04:56:31;109.32;;;31.13;;
60243;SDS011;46106;51.468;5.814;2022-12-07T04:58:56;98.05;;;30.95;;
60243;SDS011;46106;51.468;5.814;2022-12-07T05:01:22;90.78;;;31.30;;
60243;SDS011;46106;51.468;5.814;2022-12-07T05:03:48;111.32;;;31.52;;
60243;SDS011;46106;51.468;5.814;2022-12-07T05:06:15;112.32;;;32.20;;
60243;SDS011;46106;51.468;5.814;2022-12-07T05:08:41;106.72;;;32.05;;
60243;SDS011;46106;51.468;5.814;2022-12-07T05:11:08;100.07;;;30.92;;
60243;SDS011;46106;51.468;5.814;2022-12-07T05:13:34;113.90;;;32.05;;
60243;SDS011;46106;51.468;5.814;2022-12-07T05:16:02;111.22;;;34.33;;
60243;SDS011;46106;51.468;5.814;2022-12-07T05:18:28;116.63;;;30.95;;
60243;SDS011;46106;51.468;5.814;2022-12-07T05:20:53;106.47;;;31.95;;
60243;SDS011;46106;51.468;5.814;2022-12-07T05:23:19;106.68;;;31.15;;
60243;SDS011;46106;51.468;5.814;2022-12-07T05:25:45;105.47;;;30.55;;
60243;SDS011;46106;51.468;5.814;2022-12-07T05:28:11;116.55;;;29.52;;
60243;SDS011;46106;51.468;5.814;2022-12-07T05:30:36;104.88;;;29.05;;
60243;SDS011;46106;51.468;5.814;2022-12-07T05:33:02;105.53;;;29.65;;
60243;SDS011;46106;51.468;5.814;2022-12-07T05:35:28;96.57;;;29.52;;
60243;SDS011;46106;51.468;5.814;2022-12-07T05:37:54;85.43;;;28.45;;
60243;SDS011;46106;51.468;5.814;2022-12-07T05:40:21;95.43;;;28.67;;
60243;SDS011;46106;51.468;5.814;2022-12-07T05:42:46;90.35;;;28.98;;
60243;SDS011;46106;51.468;5.814;2022-12-07T05:45:14;100.40;;;30.42;;
60243;SDS011;46106;51.468;5.814;2022-12-07T05:47:39;105.38;;;29.65;;
60243;SDS011;46106;51.468;5.814;2022-12-07T05:50:05;92.20;;;27.77;;
60243;SDS011;46106;51.468;5.814;2022-12-07T05:52:34;106.20;;;30.23;;
60243;SDS011;46106;51.468;5.814;2022-12-07T05:55:00;102.88;;;28.85;;
60243;SDS011;46106;51.468;5.814;2022-12-07T05:57:25;111.45;;;30.35;;
60243;SDS011;46106;51.468;5.814;2022-12-07T05:59:51;102.97;;;30.17;;
60243;SDS011;46106;51.468;5.814;2022-12-07T06:02:16;103.63;;;29.13;;
60243;SDS011;46106;51.468;5.814;2022-12-07T06:04:46;101.95;;;27.80;;
60243;SDS011;46106;51.468;5.814;2022-12-07T06:07:12;93.25;;;28.23;;
60243;SDS011;46106;51.468;5.814;2022-12-07T06:09:41;96.35;;;28.45;;
60243;SDS011;46106;51.468;5.814;2022-12-07T06:12:09;102.32;;;27.73;;
60243;SDS011;46106;51.468;5.814;2022-12-07T06:14:55;109.43;;;29.48;;
60243;SDS011;46106;51.468;5.814;2022-12-07T06:17:21;98.22;;;29.55;;
60243;SDS011;46106;51.468;5.814;2022-12-07T06:19:46;114.13;;;30.30;;
60243;SDS011;46106;51.468;5.814;2022-12-07T06:22:12;128.65;;;31.58;;
60243;SDS011;46106;51.468;5.814;2022-12-07T06:24:38;121.72;;;32.63;;
60243;SDS011;46106;51.468;5.814;2022-12-07T06:27:05;139.93;;;32.97;;
60243;SDS011;46106;51.468;5.814;2022-12-07T06:29:31;116.57;;;31.45;;
60243;SDS011;46106;51.468;5.814;2022-12-07T06:31:56;114.13;;;31.35;;
60243;SDS011;46106;51.468;5.814;2022-12-07T06:34:22;128.70;;;32.75;;
60243;SDS011;46106;51.468;5.814;2022-12-07T06:36:49;118.00;;;32.55;;
60243;SDS011;46106;51.468;5.814;2022-12-07T06:39:21;111.93;;;31.50;;
60243;SDS011;46106;51.468;5.814;2022-12-07T06:41:47;115.20;;;30.23;;
60243;SDS011;46106;51.468;5.814;2022-12-07T06:44:18;125.00;;;30.85;;
60243;SDS011;46106;51.468;5.814;2022-12-07T06:46:44;122.03;;;33.08;;
60243;SDS011;46106;51.468;5.814;2022-12-07T06:49:11;110.40;;;31.48;;
60243;SDS011;46106;51.468;5.814;2022-12-07T06:51:36;113.78;;;30.90;;
60243;SDS011;46106;51.468;5.814;2022-12-07T06:54:06;103.50;;;30.63;;
60243;SDS011;46106;51.468;5.814;2022-12-07T06:56:35;103.38;;;31.77;;
60243;SDS011;46106;51.468;5.814;2022-12-07T06:59:00;104.03;;;30.30;;
60243;SDS011;46106;51.468;5.814;2022-12-07T07:01:27;103.70;;;29.27;;
60243;SDS011;46106;51.468;5.814;2022-12-07T07:03:53;117.00;;;30.83;;
60243;SDS011;46106;51.468;5.814;2022-12-07T07:06:18;91.70;;;30.15;;
60243;SDS011;46106;51.468;5.814;2022-12-07T07:08:44;95.85;;;30.02;;
60243;SDS011;46106;51.468;5.814;2022-12-07T07:11:10;103.03;;;29.40;;
60243;SDS011;46106;51.468;5.814;2022-12-07T07:13:35;107.93;;;28.38;;
60243;SDS011;46106;51.468;5.814;2022-12-07T07:16:01;92.97;;;29.80;;
60243;SDS011;46106;51.468;5.814;2022-12-07T07:18:27;123.18;;;31.30;;
60243;SDS011;46106;51.468;5.814;2022-12-07T07:20:54;99.63;;;28.48;;
60243;SDS011;46106;51.468;5.814;2022-12-07T07:23:20;118.85;;;33.42;;
60243;SDS011;46106;51.468;5.814;2022-12-07T07:25:46;103.28;;;28.75;;
60243;SDS011;46106;51.468;5.814;2022-12-07T07:28:12;115.22;;;31.60;;
60243;SDS011;46106;51.468;5.814;2022-12-07T07:30:38;113.93;;;30.08;;
60243;SDS011;46106;51.468;5.814;2022-12-07T07:33:03;85.07;;;28.42;;
60243;SDS011;46106;51.468;5.814;2022-12-07T07:35:31;113.35;;;30.50;;
60243;SDS011;46106;51.468;5.814;2022-12-07T07:37:58;116.65;;;31.15;;
60243;SDS011;46106;51.468;5.814;2022-12-07T07:40:23;103.22;;;29.20;;
60243;SDS011;46106;51.468;5.814;2022-12-07T07:42:53;102.53;;;28.08;;
60243;SDS011;46106;51.468;5.814;2022-12-07T07:45:20;95.50;;;30.40;;
60243;SDS011;46106;51.468;5.814;2022-12-07T07:47:47;109.55;;;28.17;;
60243;SDS011;46106;51.468;5.814;2022-12-07T07:50:13;97.57;;;29.65;;
60243;SDS011;46106;51.468;5.814;2022-12-07T07:52:39;99.15;;;32.85;;
60243;SDS011;46106;51.468;5.814;2022-12-07T07:55:05;86.82;;;25.92;;
60243;SDS011;46106;51.468;5.814;2022-12-07T07:57:35;103.00;;;28.48;;
60243;SDS011;46106;51.468;5.814;2022-12-07T08:00:02;81.57;;;27.20;;
60243;SDS011;46106;51.468;5.814;2022-12-07T08:02:33;113.40;;;28.98;;
60243;SDS011;46106;51.468;5.814;2022-12-07T08:04:59;96.78;;;27.42;;
60243;SDS011;46106;51.468;5.814;2022-12-07T08:07:24;89.40;;;29.35;;
60243;SDS011;46106;51.468;5.814;2022-12-07T08:09:49;117.78;;;29.17;;
60243;SDS011;46106;51.468;5.814;2022-12-07T08:12:15;75.47;;;26.40;;
60243;SDS011;46106;51.468;5.814;2022-12-07T08:14:40;106.20;;;29.20;;
60243;SDS011;46106;51.468;5.814;2022-12-07T08:17:06;104.25;;;28.98;;
60243;SDS011;46106;51.468;5.814;2022-12-07T08:19:32;91.90;;;28.58;;
60243;SDS011;46106;51.468;5.814;2022-12-07T08:21:58;86.40;;;26.85;;
60243;SDS011;46106;51.468;5.814;2022-12-07T08:24:24;86.47;;;26.77;;
60243;SDS011;46106;51.468;5.814;2022-12-07T08:26:50;77.40;;;26.73;;
60243;SDS011;46106;51.468;5.814;2022-12-07T08:29:15;82.53;;;26.08;;
60243;SDS011;46106;51.468;5.814;2022-12-07T08:31:45;80.85;;;25.05;;
60243;SDS011;46106;51.468;5.814;2022-12-07T08:34:11;72.45;;;25.85;;
60243;SDS011;46106;51.468;5.814;2022-12-07T08:36:37;66.22;;;24.92;;
60243;SDS011;46106;51.468;5.814;2022-12-07T08:39:02;76.07;;;25.42;;
60243;SDS011;46106;51.468;5.814;2022-12-07T08:41:28;78.75;;;25.75;;
60243;SDS011;46106;51.468;5.814;2022-12-07T08:43:54;86.35;;;28.15;;
60243;SDS011;46106;51.468;5.814;2022-12-07T08:46:20;91.20;;;26.23;;
60243;SDS011;46106;51.468;5.814;2022-12-07T08:51:47;84.45;;;27.65;;
60243;SDS011;46106;51.468;5.814;2022-12-07T08:54:14;87.80;;;27.65;;
60243;SDS011;46106;51.468;5.814;2022-12-07T08:56:41;87.63;;;27.65;;
60243;SDS011;46106;51.468;5.814;2022-12-07T08:59:09;91.45;;;28.90;;
60243;SDS011;46106;51.468;5.814;2022-12-07T09:01:35;86.32;;;28.35;;
60243;SDS011;46106;51.468;5.814;2022-12-07T09:04:00;84.68;;;29.13;;
60243;SDS011;46106;51.468;5.814;2022-12-07T09:06:26;94.32;;;29.55;;
60243;SDS011;46106;51.468;5.814;2022-12-07T09:08:54;82.60;;;29.05;;
60243;SDS011;46106;51.468;5.814;2022-12-07T09:11:25;104.53;;;30.58;;
60243;SDS011;46106;51.468;5.814;2022-12-07T09:13:51;79.88;;;29.23;;
60243;SDS011;46106;51.468;5.814;2022-12-07T09:16:16;117.13;;;31.13;;
60243;SDS011;46106;51.468;5.814;2022-12-07T09:18:41;76.43;;;29.80;;
60243;SDS011;46106;51.468;5.814;2022-12-07T09:21:07;84.95;;;31.40;;
60243;SDS011;46106;51.468;5.814;2022-12-07T09:23:32;83.05;;;29.77;;
60243;SDS011;46106;51.468;5.814;2022-12-07T09:26:01;87.22;;;28.63;;
60243;SDS011;46106;51.468;5.814;2022-12-07T09:28:30;91.90;;;28.50;;
60243;SDS011;46106;51.468;5.814;2022-12-07T09:30:56;92.13;;;27.25;;
60243;SDS011;46106;51.468;5.814;2022-12-07T09:33:21;77.65;;;25.23;;
60243;SDS011;46106;51.468;5.814;2022-12-07T09:35:49;82.82;;;23.10;;
60243;SDS011;46106;51.468;5.814;2022-12-07T09:38:15;70.45;;;22.90;;
60243;SDS011;46106;51.468;5.814;2022-12-07T09:40:41;88.35;;;22.83;;
60243;SDS011;46106;51.468;5.814;2022-12-07T09:43:26;61.38;;;22.45;;
60243;SDS011;46106;51.468;5.814;2022-12-07T09:45:53;77.75;;;20.92;;
60243;SDS011;46106;51.468;5.814;2022-12-07T09:48:21;68.63;;;17.90;;
60243;SDS011;46106;51.468;5.814;2022-12-07T09:50:50;68.35;;;18.95;;
60243;SDS011;46106;51.468;5.814;2022-12-07T09:53:38;63.33;;;19.42;;
60243;SDS011;46106;51.468;5.814;2022-12-07T09:56:08;54.30;;;17.45;;
60243;SDS011;46106;51.468;5.814;2022-12-07T09:58:38;67.85;;;16.25;;
60243;SDS011;46106;51.468;5.814;2022-12-07T10:03:32;59.15;;;15.90;;
60243;SDS011;46106;51.468;5.814;2022-12-07T10:05:58;44.63;;;14.98;;
60243;SDS011;46106;51.468;5.814;2022-12-07T10:08:24;41.63;;;14.23;;
60243;SDS011;46106;51.468;5.814;2022-12-07T10:10:52;53.15;;;14.00;;
60243;SDS011;46106;51.468;5.814;2022-12-07T10:13:40;51.85;;;13.65;;
60243;SDS011;46106;51.468;5.814;2022-12-07T10:18:49;45.45;;;12.43;;
60243;SDS011;46106;51.468;5.814;2022-12-07T10:21:25;45.65;;;12.63;;
60243;SDS011;46106;51.468;5.814;2022-12-07T10:24:05;62.45;;;13.15;;
60243;SDS011;46106;51.468;5.814;2022-12-07T10:31:37;34.03;;;9.48;;
60243;SDS011;46106;51.468;5.814;2022-12-07T10:34:08;41.90;;;11.68;;
60243;SDS011;46106;51.468;5.814;2022-12-07T10:36:47;46.10;;;11.32;;
60243;SDS011;46106;51.468;5.814;2022-12-07T10:39:13;41.58;;;10.38;;
60243;SDS011;46106;51.468;5.814;2022-12-07T10:41:53;35.35;;;10.38;;
60243;SDS011;46106;51.468;5.814;2022-12-07T10:44:32;47.13;;;11.02;;
60243;SDS011;46106;51.468;5.814;2022-12-07T10:52:16;29.15;;;9.20;;
60243;SDS011;46106;51.468;5.814;2022-12-07T10:55:16;38.38;;;9.15;;
60243;SDS011;46106;51.468;5.814;2022-12-07T11:00:30;41.65;;;8.65;;
60243;SDS011;46106;51.468;5.814;2022-12-07T11:06:00;39.88;;;8.25;;
60243;SDS011;46106;51.468;5.814;2022-12-07T11:11:34;23.15;;;7.40;;
60243;SDS011;46106;51.468;5.814;2022-12-07T11:17:11;31.63;;;6.35;;
60243;SDS011;46106;51.468;5.814;2022-12-07T11:19:46;29.05;;;4.97;;
60243;SDS011;46106;51.468;5.814;2022-12-07T11:34:15;38.13;;;7.18;;
60243;SDS011;46106;51.468;5.814;2022-12-07T11:36:53;21.30;;;4.18;;
60243;SDS011;46106;51.468;5.814;2022-12-07T11:41:47;23.80;;;3.60;;
60243;SDS011;46106;51.468;5.814;2022-12-07T11:46:54;24.35;;;5.28;;
60243;SDS011;46106;51.468;5.814;2022-12-07T11:49:40;45.38;;;6.28;;
60243;SDS011;46106;51.468;5.814;2022-12-07T11:52:06;19.90;;;4.78;;
60243;SDS011;46106;51.468;5.814;2022-12-07T11:54:44;36.80;;;5.75;;
60243;SDS011;46106;51.468;5.814;2022-12-07T11:57:17;33.97;;;4.90;;
60243;SDS011;46106;51.468;5.814;2022-12-07T11:59:53;28.08;;;6.90;;
60243;SDS011;46106;51.468;5.814;2022-12-07T12:02:27;25.58;;;4.97;;
60243;SDS011;46106;51.468;5.814;2022-12-07T12:05:17;36.53;;;5.35;;
60243;SDS011;46106;51.468;5.814;2022-12-07T12:07:46;37.70;;;4.72;;
60243;SDS011;46106;51.468;5.814;2022-12-07T12:10:29;28.98;;;3.88;;
60243;SDS011;46106;51.468;5.814;2022-12-07T12:13:24;22.58;;;4.05;;
60243;SDS011;46106;51.468;5.814;2022-12-07T12:21:54;30.75;;;4.38;;
60243;SDS011;46106;51.468;5.814;2022-12-07T12:24:25;22.45;;;3.85;;
60243;SDS011;46106;51.468;5.814;2022-12-07T12:27:36;30.95;;;4.32;;
60243;SDS011;46106;51.468;5.814;2022-12-07T12:29:52;29.58;;;5.00;;
60243;SDS011;46106;51.468;5.814;2022-12-07T12:32:20;24.70;;;4.13;;
60243;SDS011;46106;51.468;5.814;2022-12-07T12:35:27;32.17;;;4.60;;
60243;SDS011;46106;51.468;5.814;2022-12-07T12:37:51;29.77;;;4.70;;
60243;SDS011;46106;51.468;5.814;2022-12-07T12:42:51;25.30;;;5.15;;
60243;SDS011;46106;51.468;5.814;2022-12-07T12:45:28;27.08;;;3.50;;
60243;SDS011;46106;51.468;5.814;2022-12-07T12:48:02;21.10;;;3.50;;
60243;SDS011;46106;51.468;5.814;2022-12-07T12:50:32;26.45;;;3.85;;
60243;SDS011;46106;51.468;5.814;2022-12-07T12:53:01;31.45;;;3.53;;
60243;SDS011;46106;51.468;5.814;2022-12-07T13:00:42;18.23;;;3.03;;
60243;SDS011;46106;51.468;5.814;2022-12-07T13:03:20;22.63;;;4.35;;
60243;SDS011;46106;51.468;5.814;2022-12-07T13:06:16;29.90;;;3.47;;
60243;SDS011;46106;51.468;5.814;2022-12-07T13:08:52;21.10;;;3.17;;
60243;SDS011;46106;51.468;5.814;2022-12-07T13:17:01;23.90;;;3.00;;
60243;SDS011;46106;51.468;5.814;2022-12-07T13:24:55;8.52;;;3.15;;
60243;SDS011;46106;51.468;5.814;2022-12-07T13:27:40;31.90;;;3.28;;
60243;SDS011;46106;51.468;5.814;2022-12-07T13:30:18;24.27;;;3.45;;
60243;SDS011;46106;51.468;5.814;2022-12-07T13:32:55;17.75;;;3.72;;
60243;SDS011;46106;51.468;5.814;2022-12-07T13:35:29;17.70;;;4.28;;
60243;SDS011;46106;51.468;5.814;2022-12-07T13:37:56;37.70;;;4.65;;
60243;SDS011;46106;51.468;5.814;2022-12-07T13:40:22;19.42;;;3.90;;
60243;SDS011;46106;51.468;5.814;2022-12-07T13:42:56;17.95;;;4.10;;
60243;SDS011;46106;51.468;5.814;2022-12-07T13:45:30;16.98;;;3.40;;
60243;SDS011;46106;51.468;5.814;2022-12-07T13:50:53;13.73;;;3.20;;
60243;SDS011;46106;51.468;5.814;2022-12-07T13:53:20;10.52;;;2.58;;
60243;SDS011;46106;51.468;5.814;2022-12-07T13:55:47;20.63;;;3.28;;
60243;SDS011;46106;51.468;5.814;2022-12-07T13:58:13;14.00;;;2.90;;
60243;SDS011;46106;51.468;5.814;2022-12-07T14:00:39;21.17;;;3.25;;
60243;SDS011;46106;51.468;5.814;2022-12-07T14:05:38;11.65;;;2.20;;
60243;SDS011;46106;51.468;5.814;2022-12-07T14:08:20;19.38;;;2.88;;
60243;SDS011;46106;51.468;5.814;2022-12-07T14:16:54;12.98;;;1.85;;
60243;SDS011;46106;51.468;5.814;2022-12-07T14:18:54;8.07;;;1.42;;
60243;SDS011;46106;51.468;5.814;2022-12-07T14:21:23;9.23;;;1.50;;
60243;SDS011;46106;51.468;5.814;2022-12-07T14:26:46;14.60;;;1.40;;
60243;SDS011;46106;51.468;5.814;2022-12-07T14:31:52;15.65;;;1.73;;
60243;SDS011;46106;51.468;5.814;2022-12-07T14:34:21;8.73;;;1.75;;
60243;SDS011;46106;51.468;5.814;2022-12-07T14:36:47;11.27;;;2.17;;
60243;SDS011;46106;51.468;5.814;2022-12-07T14:39:13;12.65;;;1.95;;
60243;SDS011;46106;51.468;5.814;2022-12-07T14:41:39;16.75;;;2.70;;
60243;SDS011;46106;51.468;5.814;2022-12-07T14:44:16;20.38;;;3.22;;
60243;SDS011;46106;51.468;5.814;2022-12-07T14:46:47;15.10;;;2.50;;
60243;SDS011;46106;51.468;5.814;2022-12-07T14:49:13;14.95;;;3.25;;
60243;SDS011;46106;51.468;5.814;2022-12-07T14:51:40;14.27;;;2.72;;
60243;SDS011;46106;51.468;5.814;2022-12-07T14:54:13;17.92;;;3.13;;
60243;SDS011;46106;51.468;5.814;2022-12-07T14:56:42;12.02;;;3.28;;
60243;SDS011;46106;51.468;5.814;2022-12-07T14:59:08;13.85;;;3.75;;
60243;SDS011;46106;51.468;5.814;2022-12-07T15:01:34;22.98;;;3.83;;
60243;SDS011;46106;51.468;5.814;2022-12-07T15:04:00;10.75;;;3.65;;
60243;SDS011;46106;51.468;5.814;2022-12-07T15:06:25;21.52;;;4.80;;
60243;SDS011;46106;51.468;5.814;2022-12-07T15:08:51;16.00;;;4.07;;
60243;SDS011;46106;51.468;5.814;2022-12-07T15:11:17;20.05;;;4.28;;
60243;SDS011;46106;51.468;5.814;2022-12-07T15:13:43;11.65;;;3.13;;
60243;SDS011;46106;51.468;5.814;2022-12-07T15:16:27;19.95;;;3.58;;
60243;SDS011;46106;51.468;5.814;2022-12-07T15:18:53;9.43;;;2.90;;
60243;SDS011;46106;51.468;5.814;2022-12-07T15:21:18;13.32;;;2.30;;
60243;SDS011;46106;51.468;5.814;2022-12-07T15:23:45;9.35;;;1.20;;
60243;SDS011;46106;51.468;5.814;2022-12-07T15:26:11;13.40;;;1.67;;
60243;SDS011;46106;51.468;5.814;2022-12-07T15:28:38;11.63;;;2.42;;
60243;SDS011;46106;51.468;5.814;2022-12-07T15:31:15;18.42;;;3.05;;
60243;SDS011;46106;51.468;5.814;2022-12-07T15:33:41;12.02;;;2.90;;
60243;SDS011;46106;51.468;5.814;2022-12-07T15:36:09;16.05;;;3.83;;
60243;SDS011;46106;51.468;5.814;2022-12-07T15:38:46;20.70;;;4.15;;
60243;SDS011;46106;51.468;5.814;2022-12-07T15:41:11;26.58;;;4.90;;
60243;SDS011;46106;51.468;5.814;2022-12-07T15:43:37;15.27;;;4.75;;
60243;SDS011;46106;51.468;5.814;2022-12-07T15:46:21;16.10;;;6.50;;
60243;SDS011;46106;51.468;5.814;2022-12-07T15:48:47;10.75;;;5.13;;
60243;SDS011;46106;51.468;5.814;2022-12-07T15:51:13;13.02;;;5.10;;
60243;SDS011;46106;51.468;5.814;2022-12-07T15:53:38;14.48;;;5.47;;
60243;SDS011;46106;51.468;5.814;2022-12-07T15:56:07;15.85;;;4.93;;
60243;SDS011;46106;51.468;5.814;2022-12-07T15:58:33;17.10;;;4.80;;
60243;SDS011;46106;51.468;5.814;2022-12-07T16:00:59;16.48;;;5.25;;
60243;SDS011;46106;51.468;5.814;2022-12-07T16:03:24;17.48;;;5.32;;
60243;SDS011;46106;51.468;5.814;2022-12-07T16:05:52;14.80;;;6.13;;
60243;SDS011;46106;51.468;5.814;2022-12-07T16:08:18;14.27;;;5.90;;
60243;SDS011;46106;51.468;5.814;2022-12-07T16:10:44;22.13;;;5.95;;
60243;SDS011;46106;51.468;5.814;2022-12-07T16:13:10;24.58;;;6.78;;
60243;SDS011;46106;51.468;5.814;2022-12-07T16:15:41;27.42;;;6.05;;
60243;SDS011;46106;51.468;5.814;2022-12-07T16:18:07;15.55;;;6.40;;
60243;SDS011;46106;51.468;5.814;2022-12-07T16:20:32;17.00;;;6.60;;
60243;SDS011;46106;51.468;5.814;2022-12-07T16:22:58;19.40;;;6.93;;
60243;SDS011;46106;51.468;5.814;2022-12-07T16:25:24;18.30;;;6.50;;
60243;SDS011;46106;51.468;5.814;2022-12-07T16:27:50;17.92;;;7.25;;
60243;SDS011;46106;51.468;5.814;2022-12-07T16:30:16;25.70;;;6.95;;
60243;SDS011;46106;51.468;5.814;2022-12-07T16:32:45;17.80;;;7.07;;
60243;SDS011;46106;51.468;5.814;2022-12-07T16:35:11;21.42;;;8.38;;
60243;SDS011;46106;51.468;5.814;2022-12-07T16:37:37;31.15;;;10.15;;
60243;SDS011;46106;51.468;5.814;2022-12-07T16:40:03;35.53;;;10.80;;